createdAt,value
2019-03-22T00:00:39.644Z,5.98
2019-03-22T00:01:39.675Z,6.02
2019-03-22T00:02:39.634Z,5.98
2019-03-22T00:03:39.633Z,6.02
2019-03-22T00:04:39.601Z,6.00
2019-03-22T00:05:39.585Z,5.94
2019-03-22T00:06:39.579Z,5.97
2019-03-22T00:07:39.599Z,5.95
2019-03-22T00:08:39.557Z,5.97
2019-03-22T00:09:39.575Z,5.95
2019-03-22T00:10:39.531Z,5.90
2019-03-22T00:11:39.521Z,5.97
2019-03-22T00:12:39.507Z,5.97
2019-03-22T00:13:39.557Z,5.88
2019-03-22T00:14:39.486Z,5.87
2019-03-22T00:15:39.495Z,5.73
2019-03-22T00:16:39.485Z,5.80
2019-03-22T00:17:39.447Z,5.84
2019-03-22T00:18:39.435Z,5.82
2019-03-22T00:19:39.483Z,5.66
2019-03-22T00:20:39.414Z,5.79
2019-03-22T00:21:39.434Z,5.75
2019-03-22T00:22:39.404Z,5.67
2019-03-22T00:23:39.383Z,5.66
2019-03-22T00:24:39.390Z,5.65
2019-03-22T00:25:39.425Z,5.59
2019-03-22T00:26:39.353Z,5.57
2019-03-22T00:27:39.362Z,5.59
2019-03-22T00:28:39.325Z,5.55
2019-03-22T00:29:39.319Z,5.50
2019-03-22T00:30:39.304Z,5.50
2019-03-22T00:31:39.338Z,5.44
2019-03-22T00:32:39.282Z,5.47
2019-03-22T00:33:39.301Z,5.39
2019-03-22T00:34:39.257Z,5.44
2019-03-22T00:35:39.253Z,5.47
2019-03-22T00:36:39.243Z,5.37
2019-03-22T00:37:39.279Z,5.33
2019-03-22T00:38:39.219Z,5.37
2019-03-22T00:39:39.232Z,5.33
2019-03-22T00:40:39.201Z,5.30
2019-03-22T00:41:39.187Z,5.21
2019-03-22T00:42:39.173Z,5.21
2019-03-22T00:43:39.222Z,5.11
2019-03-22T00:44:39.167Z,5.11
2019-03-22T00:45:39.201Z,5.15
2019-03-22T00:46:39.146Z,5.15
2019-03-22T00:47:39.125Z,5.07
2019-03-22T00:48:39.125Z,5.09
2019-03-22T00:49:39.154Z,5.03
2019-03-22T00:50:39.094Z,4.98
2019-03-22T00:51:39.084Z,5.00
2019-03-22T00:52:39.139Z,5.03
2019-03-22T00:53:39.050Z,5.03
2019-03-22T00:54:39.039Z,5.04
2019-03-22T00:55:39.072Z,5.01
2019-03-22T00:56:39.023Z,4.98
2019-03-22T00:57:39.012Z,4.94
2019-03-22T00:58:39.040Z,4.89
2019-03-22T00:59:38.984Z,4.96
2019-03-22T01:00:38.974Z,4.96
2019-03-22T01:01:39.186Z,4.96
2019-03-22T01:02:38.951Z,4.93
2019-03-22T01:03:38.958Z,4.96
2019-03-22T01:04:38.959Z,4.96
2019-03-22T01:05:38.915Z,4.86
2019-03-22T01:06:38.909Z,4.86
2019-03-22T01:07:38.997Z,4.97
2019-03-22T01:08:38.888Z,4.93
2019-03-22T01:09:38.882Z,4.83
2019-03-22T01:10:38.882Z,4.86
2019-03-22T01:11:38.858Z,4.88
2019-03-22T01:12:38.843Z,4.83
2019-03-22T01:13:38.882Z,4.88
2019-03-22T01:14:38.827Z,4.85
2019-03-22T01:15:38.807Z,4.86
2019-03-22T01:16:38.812Z,4.78
2019-03-22T01:17:38.803Z,4.89
2019-03-22T01:18:38.778Z,4.82
2019-03-22T01:19:38.854Z,4.88
2019-03-22T01:20:38.753Z,4.75
2019-03-22T01:21:38.759Z,4.79
2019-03-22T01:22:38.754Z,4.77
2019-03-22T01:23:38.743Z,4.67
2019-03-22T01:24:38.718Z,4.72
2019-03-22T01:25:38.767Z,4.66
2019-03-22T01:26:38.701Z,4.67
2019-03-22T01:27:40.599Z,4.67
2019-03-22T01:28:38.692Z,4.67
2019-03-22T01:29:38.686Z,4.64
2019-03-22T01:30:38.651Z,4.61
2019-03-22T01:31:38.684Z,4.69
2019-03-22T01:32:38.662Z,4.61
2019-03-22T01:33:38.623Z,4.59
2019-03-22T01:34:38.610Z,4.59
2019-03-22T01:35:38.654Z,4.67
2019-03-22T01:36:38.604Z,4.61
2019-03-22T01:37:38.644Z,4.61
2019-03-22T01:38:38.569Z,4.66
2019-03-22T01:39:38.548Z,4.54
2019-03-22T01:40:38.566Z,4.54
2019-03-22T01:41:38.561Z,4.53
2019-03-22T01:42:38.542Z,4.49
2019-03-22T01:43:38.557Z,4.46
2019-03-22T01:44:38.492Z,4.51
2019-03-22T01:45:38.490Z,4.53
2019-03-22T01:46:38.494Z,4.48
2019-03-22T01:47:38.514Z,4.46
2019-03-22T01:48:38.448Z,4.42
2019-03-22T01:49:38.488Z,4.39
2019-03-22T01:50:38.471Z,4.45
2019-03-22T01:51:38.440Z,4.36
2019-03-22T01:52:38.405Z,4.31
2019-03-22T01:53:38.422Z,4.41
2019-03-22T01:54:38.417Z,4.34
2019-03-22T01:55:38.531Z,4.30
2019-03-22T01:56:38.380Z,4.39
2019-03-22T01:57:38.359Z,4.36
2019-03-22T01:58:38.340Z,4.35
2019-03-22T01:59:38.331Z,4.35
2019-03-22T02:00:38.321Z,4.35
2019-03-22T02:01:38.347Z,4.30
2019-03-22T02:02:38.323Z,4.35
2019-03-22T02:03:38.291Z,4.28
2019-03-22T02:04:38.273Z,4.27
2019-03-22T02:05:38.262Z,4.27
2019-03-22T02:06:38.256Z,4.27
2019-03-22T02:07:38.319Z,4.21
2019-03-22T02:08:38.248Z,4.27
2019-03-22T02:09:38.220Z,4.26
2019-03-22T02:10:38.208Z,4.16
2019-03-22T02:11:38.199Z,4.13
2019-03-22T02:12:38.196Z,4.18
2019-03-22T02:13:38.239Z,4.06
2019-03-22T02:14:38.191Z,4.08
2019-03-22T02:15:38.163Z,4.10
2019-03-22T02:16:38.161Z,4.05
2019-03-22T02:17:38.138Z,3.98
2019-03-22T02:18:38.120Z,3.94
2019-03-22T02:19:38.428Z,4.06
2019-03-22T02:20:38.101Z,4.08
2019-03-22T02:21:38.128Z,4.06
2019-03-22T02:22:38.148Z,3.94
2019-03-22T02:23:38.069Z,4.06
2019-03-22T02:24:38.058Z,4.00
2019-03-22T02:25:38.138Z,3.99
2019-03-22T02:26:38.045Z,4.08
2019-03-22T02:27:38.029Z,4.08
2019-03-22T02:28:38.050Z,4.08
2019-03-22T02:29:38.004Z,3.98
2019-03-22T02:30:37.998Z,3.98
2019-03-22T02:31:38.052Z,4.03
2019-03-22T02:32:37.980Z,3.90
2019-03-22T02:33:37.961Z,3.88
2019-03-22T02:34:37.996Z,3.91
2019-03-22T02:35:37.962Z,3.85
2019-03-22T02:36:37.930Z,3.82
2019-03-22T02:37:38.010Z,3.87
2019-03-22T02:38:37.919Z,3.81
2019-03-22T02:39:38.017Z,3.88
2019-03-22T02:40:37.891Z,3.85
2019-03-22T02:41:37.877Z,3.84
2019-03-22T02:42:37.883Z,3.81
2019-03-22T02:43:37.889Z,3.82
2019-03-22T02:44:37.840Z,3.81
2019-03-22T02:45:37.832Z,3.81
2019-03-22T02:46:37.828Z,3.76
2019-03-22T02:47:37.830Z,3.72
2019-03-22T02:48:37.798Z,3.76
2019-03-22T02:49:37.865Z,3.73
2019-03-22T02:50:37.791Z,3.81
2019-03-22T02:51:37.763Z,3.66
2019-03-22T02:52:37.754Z,3.60
2019-03-22T02:53:37.781Z,3.67
2019-03-22T02:54:37.763Z,3.66
2019-03-22T02:55:37.813Z,3.66
2019-03-22T02:56:37.728Z,3.55
2019-03-22T02:57:37.734Z,3.54
2019-03-22T02:58:37.714Z,3.56
2019-03-22T02:59:37.750Z,3.51
2019-03-22T03:00:37.693Z,3.64
2019-03-22T03:01:37.696Z,3.55
2019-03-22T03:02:37.672Z,3.63
2019-03-22T03:03:37.641Z,3.56
2019-03-22T03:04:37.639Z,3.56
2019-03-22T03:05:37.656Z,3.55
2019-03-22T03:06:37.600Z,3.54
2019-03-22T03:07:37.653Z,3.51
2019-03-22T03:08:37.591Z,3.49
2019-03-22T03:09:37.571Z,3.52
2019-03-22T03:10:37.590Z,3.48
2019-03-22T03:11:37.550Z,3.42
2019-03-22T03:12:37.584Z,3.41
2019-03-22T03:13:37.586Z,3.46
2019-03-22T03:14:37.515Z,3.46
2019-03-22T03:15:37.515Z,3.41
2019-03-22T03:16:37.573Z,3.45
2019-03-22T03:17:37.483Z,3.45
2019-03-22T03:18:37.473Z,3.44
2019-03-22T03:19:37.492Z,3.51
2019-03-22T03:20:37.455Z,3.41
2019-03-22T03:21:37.444Z,3.45
2019-03-22T03:22:37.453Z,3.37
2019-03-22T03:23:37.422Z,3.41
2019-03-22T03:24:37.422Z,3.42
2019-03-22T03:25:37.451Z,3.37
2019-03-22T03:26:37.426Z,3.42
2019-03-22T03:27:37.465Z,3.35
2019-03-22T03:28:37.622Z,3.41
2019-03-22T03:29:37.382Z,3.37
2019-03-22T03:30:37.480Z,3.37
2019-03-22T03:31:37.620Z,3.41
2019-03-22T03:32:37.319Z,3.30
2019-03-22T03:33:37.353Z,3.35
2019-03-22T03:34:37.361Z,3.30
2019-03-22T03:35:37.306Z,3.30
2019-03-22T03:36:37.300Z,3.27
2019-03-22T03:37:37.504Z,3.27
2019-03-22T03:38:37.369Z,3.33
2019-03-22T03:39:37.249Z,3.22
2019-03-22T03:40:37.232Z,3.25
2019-03-22T03:41:37.264Z,3.29
2019-03-22T03:42:37.226Z,3.36
2019-03-22T03:43:37.251Z,3.32
2019-03-22T03:44:37.227Z,3.29
2019-03-22T03:45:37.222Z,3.35
2019-03-22T03:46:37.176Z,3.27
2019-03-22T03:47:37.162Z,3.37
2019-03-22T03:48:37.161Z,3.42
2019-03-22T03:49:37.219Z,3.35
2019-03-22T03:50:37.129Z,3.33
2019-03-22T03:51:37.208Z,3.37
2019-03-22T03:52:39.469Z,3.41
2019-03-22T03:53:37.093Z,3.36
2019-03-22T03:54:37.105Z,3.37
2019-03-22T03:55:37.141Z,3.33
2019-03-22T03:56:37.106Z,3.35
2019-03-22T03:57:37.056Z,3.33
2019-03-22T03:58:51.615Z,3.36
2019-03-22T03:59:38.035Z,3.35
2019-03-22T04:00:37.031Z,3.37
2019-03-22T04:01:37.056Z,3.30
2019-03-22T04:02:37.048Z,3.30
2019-03-22T04:03:36.994Z,3.20
2019-03-22T04:04:36.985Z,3.22
2019-03-22T04:05:36.969Z,3.20
2019-03-22T04:06:36.973Z,3.23
2019-03-22T04:07:36.995Z,3.22
2019-03-22T04:08:36.935Z,3.18
2019-03-22T04:09:36.952Z,3.20
2019-03-22T04:10:36.913Z,3.08
2019-03-22T04:11:36.902Z,3.18
2019-03-22T04:12:36.885Z,3.11
2019-03-22T04:13:36.981Z,3.11
2019-03-22T04:14:36.878Z,3.07
2019-03-22T04:15:36.873Z,2.99
2019-03-22T04:16:36.870Z,2.97
2019-03-22T04:17:36.843Z,3.07
2019-03-22T04:18:36.826Z,2.96
2019-03-22T04:19:36.863Z,2.93
2019-03-22T04:20:36.798Z,2.91
2019-03-22T04:21:36.856Z,2.99
2019-03-22T04:22:36.777Z,2.94
2019-03-22T04:23:36.775Z,2.84
2019-03-22T04:24:36.752Z,2.84
2019-03-22T04:25:36.827Z,2.81
2019-03-22T04:26:36.737Z,2.91
2019-03-22T04:27:36.735Z,2.79
2019-03-22T04:28:36.795Z,2.89
2019-03-22T04:29:36.704Z,2.82
2019-03-22T04:30:36.820Z,2.81
2019-03-22T04:31:38.773Z,2.82
2019-03-22T04:32:36.665Z,2.82
2019-03-22T04:33:36.656Z,2.82
2019-03-22T04:34:36.715Z,2.78
2019-03-22T04:35:36.696Z,2.84
2019-03-22T04:36:36.717Z,2.82
2019-03-22T04:37:37.012Z,2.82
2019-03-22T04:38:36.734Z,2.82
2019-03-22T04:39:36.605Z,2.73
2019-03-22T04:40:37.089Z,2.73
2019-03-22T04:41:36.612Z,2.71
2019-03-22T04:42:36.570Z,2.68
2019-03-22T04:43:36.901Z,2.66
2019-03-22T04:44:36.619Z,2.66
2019-03-22T04:45:36.616Z,2.63
2019-03-22T04:46:36.643Z,2.61
2019-03-22T04:47:36.601Z,2.69
2019-03-22T04:48:36.547Z,2.57
2019-03-22T04:49:36.795Z,2.68
2019-03-22T04:51:58.158Z,2.68
2019-03-22T04:52:58.066Z,2.65
2019-03-22T04:53:58.045Z,2.58
2019-03-22T04:54:58.060Z,2.57
2019-03-22T04:55:58.022Z,2.54
2019-03-22T04:56:57.997Z,2.54
2019-03-22T04:57:57.981Z,2.61
2019-03-22T04:58:57.990Z,2.53
2019-03-22T04:59:57.982Z,2.55
2019-03-22T05:00:58.003Z,2.54
2019-03-22T05:01:57.947Z,2.48
2019-03-22T05:02:57.935Z,2.57
2019-03-22T05:03:59.121Z,2.50
2019-03-22T05:04:57.907Z,2.51
2019-03-22T05:05:57.899Z,2.50
2019-03-22T05:06:57.937Z,2.54
2019-03-22T05:07:57.875Z,2.55
2019-03-22T05:08:57.879Z,2.54
2019-03-22T05:09:57.872Z,2.48
2019-03-22T05:10:57.844Z,2.43
2019-03-22T05:11:57.832Z,2.47
2019-03-22T05:12:57.873Z,2.53
2019-03-22T05:13:57.814Z,2.50
2019-03-22T05:14:57.802Z,2.55
2019-03-22T05:15:57.829Z,2.53
2019-03-22T05:16:57.790Z,2.54
2019-03-22T05:17:57.770Z,2.48
2019-03-22T05:18:57.800Z,2.51
2019-03-22T05:19:57.747Z,2.51
2019-03-22T05:20:57.738Z,2.48
2019-03-22T05:21:57.750Z,2.53
2019-03-22T05:22:57.722Z,2.53
2019-03-22T05:23:57.703Z,2.39
2019-03-22T05:24:57.721Z,2.50
2019-03-22T05:25:57.680Z,2.50
2019-03-22T05:26:57.678Z,2.53
2019-03-22T05:27:57.688Z,2.39
2019-03-22T05:28:57.655Z,2.42
2019-03-22T05:29:57.642Z,2.43
2019-03-22T05:30:57.680Z,2.57
2019-03-22T05:31:57.617Z,2.53
2019-03-22T05:32:57.631Z,2.53
2019-03-22T05:33:57.598Z,2.53
2019-03-22T05:34:57.635Z,2.53
2019-03-22T05:35:57.574Z,2.69
2019-03-22T05:36:57.597Z,2.68
2019-03-22T05:37:57.568Z,2.55
2019-03-22T05:38:57.544Z,2.66
2019-03-22T05:39:57.533Z,2.68
2019-03-22T05:40:57.555Z,2.68
2019-03-22T05:41:57.562Z,2.78
2019-03-22T05:42:57.527Z,2.76
2019-03-22T05:43:57.509Z,2.79
2019-03-22T05:44:57.497Z,2.82
2019-03-22T05:45:57.475Z,2.86
2019-03-22T05:46:57.507Z,2.84
2019-03-22T05:47:57.450Z,2.84
2019-03-22T05:48:57.478Z,2.81
2019-03-22T05:49:57.420Z,2.79
2019-03-22T05:50:57.407Z,2.81
2019-03-22T05:51:57.412Z,2.94
2019-03-22T05:52:57.434Z,2.93
2019-03-22T05:53:57.380Z,2.82
2019-03-22T05:54:57.424Z,2.82
2019-03-22T05:55:57.356Z,2.87
2019-03-22T05:56:57.344Z,2.79
2019-03-22T05:57:57.334Z,2.78
2019-03-22T05:58:57.414Z,2.81
2019-03-22T05:59:57.419Z,2.73
2019-03-22T06:00:57.375Z,2.78
2019-03-22T06:01:57.285Z,2.76
2019-03-22T06:02:57.275Z,2.87
2019-03-22T06:03:57.282Z,2.78
2019-03-22T06:04:57.251Z,2.71
2019-03-22T06:05:57.244Z,2.76
2019-03-22T06:06:57.374Z,2.71
2019-03-22T06:07:57.321Z,2.79
2019-03-22T06:08:57.210Z,2.78
2019-03-22T06:09:57.198Z,2.86
2019-03-22T06:10:57.192Z,2.86
2019-03-22T06:11:57.184Z,2.79
2019-03-22T06:12:57.213Z,2.86
2019-03-22T06:13:57.171Z,2.94
2019-03-22T06:14:57.147Z,2.87
2019-03-22T06:15:57.136Z,2.91
2019-03-22T06:16:57.128Z,2.94
2019-03-22T06:17:57.113Z,2.97
2019-03-22T06:18:57.161Z,3.08
2019-03-22T06:19:57.096Z,3.09
2019-03-22T06:20:57.078Z,3.07
2019-03-22T06:21:57.069Z,3.09
2019-03-22T06:22:57.061Z,3.17
2019-03-22T06:23:57.060Z,3.17
2019-03-22T06:24:57.086Z,3.18
2019-03-22T06:25:57.028Z,3.27
2019-03-22T06:26:57.023Z,3.27
2019-03-22T06:27:57.135Z,3.29
2019-03-22T06:28:57.023Z,3.45
2019-03-22T06:29:57.007Z,3.41
2019-03-22T06:30:57.053Z,3.48
2019-03-22T06:31:57.054Z,3.45
2019-03-22T06:32:57.024Z,3.54
2019-03-22T06:33:56.963Z,3.63
2019-03-22T06:34:56.947Z,3.55
2019-03-22T06:35:56.988Z,3.73
2019-03-22T06:36:56.973Z,3.67
2019-03-22T06:37:56.914Z,3.63
2019-03-22T06:38:56.912Z,3.78
2019-03-22T06:39:56.875Z,3.78
2019-03-22T06:40:56.916Z,3.81
2019-03-22T06:41:56.882Z,3.90
2019-03-22T06:42:56.893Z,4.03
2019-03-22T06:43:56.864Z,4.08
2019-03-22T06:44:56.837Z,4.20
2019-03-22T06:45:56.826Z,4.20
2019-03-22T06:46:56.817Z,4.39
2019-03-22T06:47:56.807Z,4.41
2019-03-22T06:48:56.927Z,4.41
2019-03-22T06:49:56.763Z,4.49
2019-03-22T06:50:56.752Z,4.57
2019-03-22T06:51:56.742Z,4.66
2019-03-22T06:52:56.737Z,4.69
2019-03-22T06:53:56.726Z,4.71
2019-03-22T06:54:56.743Z,4.74
2019-03-22T06:55:56.697Z,4.82
2019-03-22T06:56:56.686Z,4.94
2019-03-22T06:57:56.687Z,4.94
2019-03-22T06:58:56.668Z,4.94
2019-03-22T07:00:05.920Z,5.03
2019-03-22T07:00:57.806Z,5.14
2019-03-22T07:01:56.699Z,5.03
2019-03-22T07:02:56.907Z,5.19
2019-03-22T07:03:57.161Z,5.09
2019-03-22T07:04:56.735Z,5.25
2019-03-22T07:05:56.589Z,5.29
2019-03-22T07:06:56.640Z,5.34
2019-03-22T07:07:56.566Z,5.36
2019-03-22T07:08:56.637Z,5.40
2019-03-22T07:09:56.566Z,5.40
2019-03-22T07:10:56.539Z,5.50
2019-03-22T07:11:56.595Z,5.54
2019-03-22T07:12:56.546Z,5.51
2019-03-22T07:13:56.529Z,5.52
2019-03-22T07:14:56.499Z,5.65
2019-03-22T07:15:56.482Z,5.67
2019-03-22T07:16:58.746Z,5.82
2019-03-22T07:17:56.523Z,5.87
2019-03-22T07:18:56.681Z,6.05
2019-03-22T07:19:56.479Z,6.08
2019-03-22T07:20:56.426Z,6.15
2019-03-22T07:21:56.416Z,6.28
2019-03-22T07:22:56.482Z,6.32
2019-03-22T07:23:56.392Z,6.40
2019-03-22T07:24:56.435Z,6.49
2019-03-22T07:25:56.369Z,6.63
2019-03-22T07:26:56.354Z,6.63
2019-03-22T07:27:56.356Z,6.67
2019-03-22T07:28:56.337Z,6.74
2019-03-22T07:29:56.321Z,6.85
2019-03-22T07:30:56.365Z,6.91
2019-03-22T07:31:56.303Z,6.86
2019-03-22T07:32:56.289Z,6.86
2019-03-22T07:33:56.284Z,6.96
2019-03-22T07:34:56.280Z,7.04
2019-03-22T07:35:56.257Z,7.03
2019-03-22T07:36:56.317Z,7.00
2019-03-22T07:37:56.233Z,6.99
2019-03-22T07:38:56.233Z,7.03
2019-03-22T07:39:56.217Z,6.99
2019-03-22T07:40:56.223Z,6.99
2019-03-22T07:41:56.189Z,7.16
2019-03-22T07:42:56.236Z,7.11
2019-03-22T07:43:56.213Z,7.29
2019-03-22T07:44:56.260Z,7.28
2019-03-22T07:45:56.295Z,7.22
2019-03-22T07:46:56.136Z,7.29
2019-03-22T07:47:56.128Z,7.39
2019-03-22T07:48:56.196Z,7.44
2019-03-22T07:49:56.150Z,7.50
2019-03-22T07:50:56.115Z,7.60
2019-03-22T07:51:56.200Z,7.62
2019-03-22T07:52:56.077Z,7.81
2019-03-22T07:53:56.064Z,7.87
2019-03-22T07:54:56.107Z,7.95
2019-03-22T07:55:56.036Z,7.94
2019-03-22T07:56:56.032Z,7.96
2019-03-22T07:57:56.025Z,8.04
2019-03-22T07:58:56.117Z,7.99
2019-03-22T07:59:55.994Z,8.09
2019-03-22T08:00:56.029Z,8.17
2019-03-22T08:01:56.032Z,8.20
2019-03-22T08:02:56.147Z,8.31
2019-03-22T08:03:55.953Z,8.21
2019-03-22T08:04:55.939Z,8.29
2019-03-22T08:05:55.929Z,8.44
2019-03-22T08:06:55.992Z,8.56
2019-03-22T08:07:56.209Z,8.56
2019-03-22T08:08:55.895Z,8.60
2019-03-22T08:09:55.982Z,8.77
2019-03-22T08:10:55.914Z,8.77
2019-03-22T08:11:55.909Z,8.95
2019-03-22T08:12:55.937Z,9.03
2019-03-22T08:13:55.849Z,9.08
2019-03-22T08:14:55.849Z,9.15
2019-03-22T08:15:57.528Z,9.26
2019-03-22T08:16:55.835Z,9.37
2019-03-22T08:17:57.067Z,9.41
2019-03-22T08:18:55.858Z,9.65
2019-03-22T08:19:57.282Z,9.62
2019-03-22T08:20:55.763Z,9.65
2019-03-22T08:21:55.752Z,9.88
2019-03-22T08:22:55.741Z,10.05
2019-03-22T08:23:55.727Z,10.01
2019-03-22T08:24:55.781Z,10.26
2019-03-22T08:25:55.729Z,10.31
2019-03-22T08:26:55.701Z,10.34
2019-03-22T08:27:55.710Z,10.60
2019-03-22T08:28:55.677Z,10.64
2019-03-22T08:29:55.663Z,10.67
2019-03-22T08:30:55.690Z,10.79
2019-03-22T08:31:55.664Z,10.76
2019-03-22T08:32:55.632Z,10.90
2019-03-22T08:33:55.630Z,10.98
2019-03-22T08:34:55.608Z,10.97
2019-03-22T08:35:55.608Z,11.08
2019-03-22T08:36:55.643Z,11.23
2019-03-22T08:37:55.595Z,11.28
2019-03-22T08:38:55.562Z,11.33
2019-03-22T08:39:55.964Z,11.41
2019-03-22T08:40:55.565Z,11.38
2019-03-22T08:41:55.614Z,11.43
2019-03-22T08:42:55.558Z,11.51
2019-03-22T08:43:55.526Z,11.54
2019-03-22T08:44:55.491Z,11.66
2019-03-22T08:45:55.497Z,11.64
2019-03-22T08:46:55.487Z,11.79
2019-03-22T08:47:55.511Z,11.97
2019-03-22T08:48:55.580Z,12.03
2019-03-22T08:49:55.479Z,12.13
2019-03-22T08:50:55.474Z,12.13
2019-03-22T08:51:55.414Z,12.23
2019-03-22T08:52:55.406Z,12.22
2019-03-22T08:53:55.874Z,12.25
2019-03-22T08:54:55.433Z,12.40
2019-03-22T08:55:55.372Z,12.38
2019-03-22T08:56:55.429Z,12.47
2019-03-22T08:57:55.347Z,12.53
2019-03-22T08:58:55.342Z,12.61
2019-03-22T08:59:55.345Z,12.62
2019-03-22T09:00:57.894Z,12.65
2019-03-22T09:01:55.361Z,12.68
2019-03-22T09:02:55.309Z,12.79
2019-03-22T09:03:55.282Z,12.90
2019-03-22T09:04:55.280Z,12.86
2019-03-22T09:05:55.265Z,12.99
2019-03-22T09:06:55.281Z,12.96
2019-03-22T09:07:55.281Z,13.06
2019-03-22T09:08:55.299Z,13.14
2019-03-22T09:09:55.264Z,13.17
2019-03-22T09:10:55.204Z,13.16
2019-03-22T09:11:55.194Z,13.19
2019-03-22T09:12:55.222Z,13.17
2019-03-22T09:13:55.172Z,13.19
2019-03-22T09:14:55.182Z,13.26
2019-03-22T09:15:55.182Z,13.29
2019-03-22T09:16:55.159Z,13.36
2019-03-22T09:17:55.152Z,13.45
2019-03-22T09:18:55.166Z,13.54
2019-03-22T09:19:55.155Z,13.54
2019-03-22T09:20:55.151Z,13.64
2019-03-22T09:21:55.122Z,13.75
2019-03-22T09:22:55.115Z,13.78
2019-03-22T09:23:55.100Z,13.79
2019-03-22T09:24:55.137Z,13.73
2019-03-22T09:25:55.079Z,13.88
2019-03-22T09:26:55.066Z,13.79
2019-03-22T09:27:55.051Z,14.09
2019-03-22T09:28:55.065Z,14.12
2019-03-22T09:29:55.009Z,14.18
2019-03-22T09:30:55.196Z,14.15
2019-03-22T09:31:54.979Z,14.22
2019-03-22T09:32:54.978Z,14.26
2019-03-22T09:33:54.950Z,14.23
2019-03-22T09:34:54.995Z,14.48
2019-03-22T09:35:54.930Z,14.36
2019-03-22T09:36:54.979Z,14.45
2019-03-22T09:37:54.926Z,14.45
2019-03-22T09:38:54.934Z,14.51
2019-03-22T09:39:54.891Z,14.49
2019-03-22T09:40:54.922Z,14.49
2019-03-22T09:41:54.862Z,14.44
2019-03-22T09:42:54.939Z,14.49
2019-03-22T09:43:54.838Z,14.36
2019-03-22T09:44:54.840Z,14.58
2019-03-22T09:45:54.855Z,14.69
2019-03-22T09:46:54.822Z,14.74
2019-03-22T09:47:54.790Z,14.93
2019-03-22T09:48:54.825Z,15.01
2019-03-22T09:49:54.788Z,15.03
2019-03-22T09:50:54.787Z,15.01
2019-03-22T09:51:55.292Z,15.14
2019-03-22T09:52:54.741Z,15.25
2019-03-22T09:53:54.780Z,15.26
2019-03-22T09:54:54.844Z,15.33
2019-03-22T09:55:54.703Z,15.40
2019-03-22T09:56:54.707Z,15.36
2019-03-22T09:57:54.719Z,15.44
2019-03-22T09:58:54.676Z,15.48
2019-03-22T09:59:54.661Z,15.45
2019-03-22T10:00:54.744Z,15.51
2019-03-22T10:01:54.642Z,15.70
2019-03-22T10:02:54.631Z,15.72
2019-03-22T10:03:54.682Z,15.77
2019-03-22T10:04:54.627Z,15.77
2019-03-22T10:05:54.625Z,15.83
2019-03-22T10:06:54.651Z,15.96
2019-03-22T10:07:54.564Z,16.05
2019-03-22T10:08:54.559Z,16.10
2019-03-22T10:09:54.567Z,16.16
2019-03-22T10:10:54.538Z,16.13
2019-03-22T10:11:54.601Z,16.22
2019-03-22T10:12:54.674Z,16.24
2019-03-22T10:13:54.556Z,16.17
2019-03-22T10:14:54.496Z,16.17
2019-03-22T10:15:54.532Z,16.22
2019-03-22T10:16:54.471Z,16.32
2019-03-22T10:17:54.453Z,16.37
2019-03-22T10:18:54.521Z,16.51
2019-03-22T10:19:54.461Z,16.44
2019-03-22T10:20:54.428Z,16.59
2019-03-22T10:21:54.477Z,16.51
2019-03-22T10:22:54.433Z,16.42
2019-03-22T10:23:54.429Z,16.37
2019-03-22T10:24:54.474Z,16.32
2019-03-22T10:25:54.429Z,16.25
2019-03-22T10:26:54.355Z,16.34
2019-03-22T10:27:54.436Z,16.36
2019-03-22T10:28:54.391Z,16.39
2019-03-22T10:29:54.336Z,16.39
2019-03-22T10:30:54.347Z,16.52
2019-03-22T10:31:54.316Z,16.42
2019-03-22T10:32:54.295Z,16.37
2019-03-22T10:33:54.303Z,16.40
2019-03-22T10:34:54.272Z,16.40
2019-03-22T10:35:54.271Z,16.26
2019-03-22T10:36:54.328Z,16.26
2019-03-22T10:38:00.412Z,16.33
2019-03-22T10:38:55.261Z,16.33
2019-03-22T10:39:54.230Z,16.34
2019-03-22T10:40:54.228Z,16.28
2019-03-22T10:41:54.189Z,16.16
2019-03-22T10:42:54.231Z,16.22
2019-03-22T10:43:54.263Z,16.25
2019-03-22T10:44:54.174Z,16.28
2019-03-22T10:45:54.168Z,16.39
2019-03-22T10:46:54.298Z,16.43
2019-03-22T10:47:54.129Z,16.55
2019-03-22T10:48:54.146Z,16.52
2019-03-22T10:49:54.101Z,16.55
2019-03-22T10:50:54.221Z,16.58
2019-03-22T10:51:57.392Z,16.72
2019-03-22T10:52:54.070Z,16.69
2019-03-22T10:53:54.103Z,16.69
2019-03-22T10:54:54.078Z,16.83
2019-03-22T10:55:54.040Z,16.82
2019-03-22T10:56:54.073Z,16.83
2019-03-22T10:57:55.465Z,16.95
2019-03-22T10:58:54.232Z,16.97
2019-03-22T10:59:54.014Z,17.01
2019-03-22T11:00:54.016Z,17.12
2019-03-22T11:02:03.070Z,17.04
2019-03-22T11:02:54.957Z,17.10
2019-03-22T11:03:54.055Z,17.12
2019-03-22T11:04:53.939Z,17.24
2019-03-22T11:05:53.924Z,17.31
2019-03-22T11:06:53.952Z,17.27
2019-03-22T11:07:53.903Z,17.22
2019-03-22T11:08:53.919Z,17.17
2019-03-22T11:09:53.879Z,17.22
2019-03-22T11:10:53.869Z,17.32
2019-03-22T11:11:53.881Z,17.32
2019-03-22T11:12:53.877Z,17.31
2019-03-22T11:13:53.837Z,17.35
2019-03-22T11:14:53.840Z,17.41
2019-03-22T11:15:53.814Z,17.43
2019-03-22T11:16:53.810Z,17.52
2019-03-22T11:17:54.203Z,17.56
2019-03-22T11:18:53.896Z,17.46
2019-03-22T11:19:53.770Z,17.54
2019-03-22T11:20:53.765Z,17.57
2019-03-22T11:21:53.782Z,17.63
2019-03-22T11:22:53.740Z,17.57
2019-03-22T11:23:53.728Z,17.66
2019-03-22T11:24:53.762Z,17.78
2019-03-22T11:26:00.279Z,17.94
2019-03-22T11:26:54.690Z,18.03
2019-03-22T11:27:53.682Z,18.02
2019-03-22T11:28:53.669Z,18.02
2019-03-22T11:29:53.663Z,18.06
2019-03-22T11:30:53.711Z,18.05
2019-03-22T11:31:53.636Z,17.99
2019-03-22T11:32:53.625Z,17.88
2019-03-22T11:33:53.616Z,17.90
2019-03-22T11:34:53.603Z,17.86
2019-03-22T11:35:53.599Z,17.84
2019-03-22T11:36:53.660Z,17.88
2019-03-22T11:37:53.569Z,17.93
2019-03-22T11:38:53.561Z,18.12
2019-03-22T11:39:53.545Z,18.13
2019-03-22T11:40:53.537Z,18.12
2019-03-22T11:41:53.530Z,18.09
2019-03-22T11:42:53.572Z,18.11
2019-03-22T11:43:53.505Z,18.11
2019-03-22T11:44:53.609Z,18.20
2019-03-22T11:45:53.562Z,18.28
2019-03-22T11:46:53.473Z,18.41
2019-03-22T11:47:53.509Z,18.51
2019-03-22T11:48:53.490Z,18.54
2019-03-22T11:49:53.443Z,18.38
2019-03-22T11:50:53.431Z,18.51
2019-03-22T11:51:53.431Z,18.51
2019-03-22T11:52:53.401Z,18.70
2019-03-22T11:53:53.396Z,18.70
2019-03-22T11:54:53.414Z,18.63
2019-03-22T11:55:53.370Z,18.67
2019-03-22T11:56:53.411Z,18.71
2019-03-22T11:57:53.373Z,18.67
2019-03-22T11:58:53.372Z,18.81
2019-03-22T11:59:53.327Z,18.70
2019-03-22T12:00:53.355Z,18.70
2019-03-22T12:01:53.307Z,18.71
2019-03-22T12:02:53.298Z,18.66
2019-03-22T12:03:53.283Z,18.76
2019-03-22T12:04:53.275Z,18.75
2019-03-22T12:05:53.269Z,18.81
2019-03-22T12:06:53.301Z,18.82
2019-03-22T12:07:53.239Z,18.91
2019-03-22T12:08:53.234Z,18.89
2019-03-22T12:09:53.214Z,18.86
2019-03-22T12:10:53.212Z,19.01
2019-03-22T12:11:53.199Z,19.12
2019-03-22T12:12:53.220Z,19.07
2019-03-22T12:13:53.175Z,19.19
2019-03-22T12:14:53.167Z,19.31
2019-03-22T12:15:53.154Z,19.37
2019-03-22T12:16:53.138Z,19.47
2019-03-22T12:17:53.136Z,19.63
2019-03-22T12:18:53.230Z,19.56
2019-03-22T12:19:53.109Z,19.68
2019-03-22T12:20:53.099Z,19.92
2019-03-22T12:21:53.092Z,19.94
2019-03-22T12:22:53.071Z,20.00
2019-03-22T12:23:53.073Z,20.11
2019-03-22T12:24:53.077Z,20.12
2019-03-22T12:25:53.036Z,20.37
2019-03-22T12:26:53.026Z,20.42
2019-03-22T12:27:53.022Z,20.53
2019-03-22T12:28:53.012Z,20.60
2019-03-22T12:29:53.484Z,20.64
2019-03-22T12:30:53.188Z,20.75
2019-03-22T12:31:52.981Z,20.90
2019-03-22T12:32:52.962Z,21.18
2019-03-22T12:33:52.965Z,21.25
2019-03-22T12:34:52.940Z,21.62
2019-03-22T12:35:52.932Z,21.71
2019-03-22T12:36:53.002Z,21.55
2019-03-22T12:37:52.929Z,21.65
2019-03-22T12:38:52.892Z,21.78
2019-03-22T12:39:52.891Z,21.84
2019-03-22T12:40:52.915Z,22.03
2019-03-22T12:41:52.864Z,22.40
2019-03-22T12:42:52.913Z,22.37
2019-03-22T12:43:52.846Z,22.40
2019-03-22T12:44:52.858Z,22.27
2019-03-22T12:45:52.819Z,22.44
2019-03-22T12:46:52.838Z,22.70
2019-03-22T12:47:52.799Z,22.89
2019-03-22T12:48:52.838Z,22.93
2019-03-22T12:49:52.779Z,22.74
2019-03-22T12:50:52.766Z,22.73
2019-03-22T12:51:52.757Z,23.04
2019-03-22T12:52:52.773Z,23.23
2019-03-22T12:53:52.738Z,23.29
2019-03-22T12:54:52.792Z,23.29
2019-03-22T12:55:52.723Z,23.36
2019-03-22T12:56:52.714Z,23.06
2019-03-22T12:57:52.764Z,23.03
2019-03-22T12:58:52.690Z,23.31
2019-03-22T12:59:52.684Z,23.41
2019-03-22T13:00:52.712Z,23.13
2019-03-22T13:01:52.650Z,23.06
2019-03-22T13:02:52.646Z,22.86
2019-03-22T13:03:52.687Z,22.81
2019-03-22T13:04:52.673Z,22.96
2019-03-22T13:05:52.609Z,22.95
2019-03-22T13:06:53.262Z,22.80
2019-03-22T13:07:52.673Z,23.15
2019-03-22T13:08:52.585Z,23.28
2019-03-22T13:09:52.562Z,23.23